Aviation Digital Data Service (ADDS)

Output produced by METARs form (1719 UTC 21 September 2019)
found at http://aviationweather.gov/metar/data/
 
KLCH 211653Z 12009KT 10SM FEW030 FEW037 SCT048 31/23 A3012 RMK AO2 SLP208 T03110233
KLCH 211140Z 2112/2212 10005KT P6SM SKC 
     FM211500 12010KT P6SM SCT030 
     FM211800 13010KT P6SM VCSH SCT050 
     FM220200 12006KT P6SM SCT250